sensor_id;sensor_type;location;lat;lon;timestamp;P1;durP1;ratioP1;P2;durP2;ratioP2
21206;SDS011;10761;48.532;8.026;2023-04-03T00:01:28;3.35;;;2.20;;
21206;SDS011;10761;48.532;8.026;2023-04-03T00:03:54;2.88;;;2.25;;
21206;SDS011;10761;48.532;8.026;2023-04-03T00:06:20;3.20;;;2.63;;
21206;SDS011;10761;48.532;8.026;2023-04-03T00:08:46;3.58;;;2.40;;
21206;SDS011;10761;48.532;8.026;2023-04-03T00:11:12;2.42;;;2.00;;
21206;SDS011;10761;48.532;8.026;2023-04-03T00:13:38;2.40;;;2.20;;
21206;SDS011;10761;48.532;8.026;2023-04-03T00:16:05;2.20;;;2.00;;
21206;SDS011;10761;48.532;8.026;2023-04-03T00:18:31;2.65;;;1.98;;
21206;SDS011;10761;48.532;8.026;2023-04-03T00:20:57;3.15;;;1.98;;
21206;SDS011;10761;48.532;8.026;2023-04-03T00:23:23;3.53;;;2.13;;
21206;SDS011;10761;48.532;8.026;2023-04-03T00:25:48;2.90;;;2.17;;
21206;SDS011;10761;48.532;8.026;2023-04-03T00:28:15;2.03;;;1.90;;
21206;SDS011;10761;48.532;8.026;2023-04-03T00:30:40;3.10;;;2.20;;
21206;SDS011;10761;48.532;8.026;2023-04-03T00:33:06;2.25;;;2.05;;
21206;SDS011;10761;48.532;8.026;2023-04-03T00:35:33;3.00;;;2.00;;
21206;SDS011;10761;48.532;8.026;2023-04-03T00:38:00;2.50;;;1.92;;
21206;SDS011;10761;48.532;8.026;2023-04-03T00:40:26;3.80;;;2.10;;
21206;SDS011;10761;48.532;8.026;2023-04-03T00:42:55;2.45;;;2.10;;
21206;SDS011;10761;48.532;8.026;2023-04-03T00:45:36;3.70;;;2.20;;
21206;SDS011;10761;48.532;8.026;2023-04-03T00:48:04;3.13;;;2.30;;
21206;SDS011;10761;48.532;8.026;2023-04-03T00:50:33;3.55;;;2.50;;
21206;SDS011;10761;48.532;8.026;2023-04-03T00:53:01;3.15;;;2.20;;
21206;SDS011;10761;48.532;8.026;2023-04-03T00:55:28;2.40;;;2.08;;
21206;SDS011;10761;48.532;8.026;2023-04-03T00:57:55;3.13;;;2.30;;
21206;SDS011;10761;48.532;8.026;2023-04-03T01:00:21;2.45;;;2.22;;
21206;SDS011;10761;48.532;8.026;2023-04-03T01:02:48;3.28;;;2.15;;
21206;SDS011;10761;48.532;8.026;2023-04-03T01:05:15;2.97;;;2.40;;
21206;SDS011;10761;48.532;8.026;2023-04-03T01:07:42;2.58;;;1.83;;
21206;SDS011;10761;48.532;8.026;2023-04-03T01:10:09;3.00;;;2.08;;
21206;SDS011;10761;48.532;8.026;2023-04-03T01:12:39;6.55;;;2.20;;
21206;SDS011;10761;48.532;8.026;2023-04-03T01:15:11;2.78;;;2.10;;
21206;SDS011;10761;48.532;8.026;2023-04-03T01:17:52;2.60;;;2.22;;
21206;SDS011;10761;48.532;8.026;2023-04-03T01:23:07;2.83;;;2.00;;
21206;SDS011;10761;48.532;8.026;2023-04-03T01:25:54;2.83;;;2.22;;
21206;SDS011;10761;48.532;8.026;2023-04-03T01:33:42;4.60;;;2.30;;
21206;SDS011;10761;48.532;8.026;2023-04-03T01:36:08;3.88;;;2.25;;
21206;SDS011;10761;48.532;8.026;2023-04-03T01:38:37;2.65;;;2.40;;
21206;SDS011;10761;48.532;8.026;2023-04-03T01:41:03;2.88;;;2.60;;
21206;SDS011;10761;48.532;8.026;2023-04-03T01:43:29;4.18;;;2.47;;
21206;SDS011;10761;48.532;8.026;2023-04-03T01:45:54;3.40;;;2.20;;
21206;SDS011;10761;48.532;8.026;2023-04-03T01:48:20;3.63;;;2.38;;
21206;SDS011;10761;48.532;8.026;2023-04-03T01:50:46;2.60;;;2.40;;
21206;SDS011;10761;48.532;8.026;2023-04-03T01:53:11;3.17;;;2.20;;
21206;SDS011;10761;48.532;8.026;2023-04-03T01:55:37;3.55;;;2.20;;
21206;SDS011;10761;48.532;8.026;2023-04-03T01:58:03;3.63;;;2.38;;
21206;SDS011;10761;48.532;8.026;2023-04-03T02:00:28;2.70;;;2.17;;
21206;SDS011;10761;48.532;8.026;2023-04-03T02:02:54;7.47;;;2.25;;
21206;SDS011;10761;48.532;8.026;2023-04-03T02:05:20;3.53;;;2.28;;
21206;SDS011;10761;48.532;8.026;2023-04-03T02:07:46;2.88;;;2.10;;
21206;SDS011;10761;48.532;8.026;2023-04-03T02:10:11;3.03;;;2.08;;
21206;SDS011;10761;48.532;8.026;2023-04-03T02:12:37;3.55;;;2.25;;
21206;SDS011;10761;48.532;8.026;2023-04-03T02:15:03;5.55;;;2.53;;
21206;SDS011;10761;48.532;8.026;2023-04-03T02:17:29;3.40;;;2.20;;
21206;SDS011;10761;48.532;8.026;2023-04-03T02:19:54;3.72;;;2.40;;
21206;SDS011;10761;48.532;8.026;2023-04-03T02:22:20;2.80;;;1.95;;
21206;SDS011;10761;48.532;8.026;2023-04-03T02:24:45;3.47;;;2.20;;
21206;SDS011;10761;48.532;8.026;2023-04-03T02:27:11;4.07;;;2.20;;
21206;SDS011;10761;48.532;8.026;2023-04-03T02:29:37;3.60;;;2.33;;
21206;SDS011;10761;48.532;8.026;2023-04-03T02:32:03;3.58;;;2.42;;
21206;SDS011;10761;48.532;8.026;2023-04-03T02:34:29;3.75;;;2.40;;
21206;SDS011;10761;48.532;8.026;2023-04-03T02:36:54;2.53;;;2.15;;
21206;SDS011;10761;48.532;8.026;2023-04-03T02:39:20;3.25;;;2.10;;
21206;SDS011;10761;48.532;8.026;2023-04-03T02:41:46;3.92;;;2.35;;
21206;SDS011;10761;48.532;8.026;2023-04-03T02:44:11;4.00;;;2.15;;
21206;SDS011;10761;48.532;8.026;2023-04-03T02:46:38;4.28;;;2.40;;
21206;SDS011;10761;48.532;8.026;2023-04-03T02:49:04;3.00;;;2.22;;
21206;SDS011;10761;48.532;8.026;2023-04-03T02:51:30;3.20;;;2.25;;
21206;SDS011;10761;48.532;8.026;2023-04-03T02:53:56;3.50;;;2.33;;
21206;SDS011;10761;48.532;8.026;2023-04-03T02:56:22;3.85;;;2.00;;
21206;SDS011;10761;48.532;8.026;2023-04-03T02:58:47;2.58;;;2.17;;
21206;SDS011;10761;48.532;8.026;2023-04-03T03:01:13;3.45;;;2.20;;
21206;SDS011;10761;48.532;8.026;2023-04-03T03:03:39;2.70;;;2.22;;
21206;SDS011;10761;48.532;8.026;2023-04-03T03:06:05;2.17;;;1.98;;
21206;SDS011;10761;48.532;8.026;2023-04-03T03:08:33;2.83;;;2.38;;
21206;SDS011;10761;48.532;8.026;2023-04-03T03:11:00;3.90;;;2.10;;
21206;SDS011;10761;48.532;8.026;2023-04-03T03:13:26;3.75;;;2.33;;
21206;SDS011;10761;48.532;8.026;2023-04-03T03:15:52;4.35;;;2.40;;
21206;SDS011;10761;48.532;8.026;2023-04-03T03:18:17;2.75;;;2.22;;
21206;SDS011;10761;48.532;8.026;2023-04-03T03:20:43;3.97;;;2.50;;
21206;SDS011;10761;48.532;8.026;2023-04-03T03:23:09;2.40;;;2.13;;
21206;SDS011;10761;48.532;8.026;2023-04-03T03:25:38;4.07;;;2.70;;
21206;SDS011;10761;48.532;8.026;2023-04-03T03:28:05;3.13;;;2.42;;
21206;SDS011;10761;48.532;8.026;2023-04-03T03:30:31;4.63;;;2.70;;
21206;SDS011;10761;48.532;8.026;2023-04-03T03:32:56;3.88;;;2.60;;
21206;SDS011;10761;48.532;8.026;2023-04-03T03:35:22;3.15;;;2.63;;
21206;SDS011;10761;48.532;8.026;2023-04-03T03:37:47;6.13;;;2.35;;
21206;SDS011;10761;48.532;8.026;2023-04-03T03:40:13;5.70;;;2.83;;
21206;SDS011;10761;48.532;8.026;2023-04-03T03:42:39;3.95;;;2.80;;
21206;SDS011;10761;48.532;8.026;2023-04-03T03:45:05;4.00;;;2.80;;
21206;SDS011;10761;48.532;8.026;2023-04-03T03:47:31;3.25;;;2.42;;
21206;SDS011;10761;48.532;8.026;2023-04-03T03:49:56;4.35;;;2.35;;
21206;SDS011;10761;48.532;8.026;2023-04-03T03:52:22;4.13;;;2.80;;
21206;SDS011;10761;48.532;8.026;2023-04-03T03:54:48;2.88;;;2.50;;
21206;SDS011;10761;48.532;8.026;2023-04-03T03:57:13;2.60;;;2.40;;
21206;SDS011;10761;48.532;8.026;2023-04-03T03:59:39;3.33;;;2.35;;
21206;SDS011;10761;48.532;8.026;2023-04-03T04:02:06;4.00;;;2.47;;
21206;SDS011;10761;48.532;8.026;2023-04-03T04:04:32;3.75;;;2.30;;
21206;SDS011;10761;48.532;8.026;2023-04-03T04:06:58;3.78;;;2.50;;
21206;SDS011;10761;48.532;8.026;2023-04-03T04:09:25;2.83;;;2.33;;
21206;SDS011;10761;48.532;8.026;2023-04-03T04:11:51;3.65;;;2.50;;
21206;SDS011;10761;48.532;8.026;2023-04-03T04:14:17;4.15;;;2.55;;
21206;SDS011;10761;48.532;8.026;2023-04-03T04:16:45;4.38;;;2.35;;
21206;SDS011;10761;48.532;8.026;2023-04-03T04:19:11;3.63;;;2.35;;
21206;SDS011;10761;48.532;8.026;2023-04-03T04:21:38;3.92;;;2.65;;
21206;SDS011;10761;48.532;8.026;2023-04-03T04:24:04;3.38;;;2.67;;
21206;SDS011;10761;48.532;8.026;2023-04-03T04:26:30;3.75;;;2.67;;
21206;SDS011;10761;48.532;8.026;2023-04-03T04:28:56;4.55;;;2.47;;
21206;SDS011;10761;48.532;8.026;2023-04-03T04:31:21;4.88;;;2.58;;
21206;SDS011;10761;48.532;8.026;2023-04-03T04:33:47;3.33;;;2.60;;
21206;SDS011;10761;48.532;8.026;2023-04-03T04:36:13;3.70;;;2.65;;
21206;SDS011;10761;48.532;8.026;2023-04-03T04:38:39;4.40;;;2.80;;
21206;SDS011;10761;48.532;8.026;2023-04-03T04:41:06;3.67;;;3.22;;
21206;SDS011;10761;48.532;8.026;2023-04-03T04:43:31;3.28;;;2.58;;
21206;SDS011;10761;48.532;8.026;2023-04-03T04:46:01;4.82;;;2.80;;
21206;SDS011;10761;48.532;8.026;2023-04-03T04:48:28;4.63;;;2.95;;
21206;SDS011;10761;48.532;8.026;2023-04-03T04:50:54;4.00;;;3.00;;
21206;SDS011;10761;48.532;8.026;2023-04-03T04:53:20;3.20;;;2.70;;
21206;SDS011;10761;48.532;8.026;2023-04-03T04:55:45;4.63;;;2.97;;
21206;SDS011;10761;48.532;8.026;2023-04-03T04:58:11;6.85;;;3.35;;
21206;SDS011;10761;48.532;8.026;2023-04-03T05:00:36;3.45;;;2.80;;
21206;SDS011;10761;48.532;8.026;2023-04-03T05:03:02;4.72;;;3.00;;
21206;SDS011;10761;48.532;8.026;2023-04-03T05:05:28;4.60;;;3.00;;
21206;SDS011;10761;48.532;8.026;2023-04-03T05:07:53;6.43;;;2.80;;
21206;SDS011;10761;48.532;8.026;2023-04-03T05:10:19;4.40;;;2.95;;
21206;SDS011;10761;48.532;8.026;2023-04-03T05:12:45;5.47;;;2.90;;
21206;SDS011;10761;48.532;8.026;2023-04-03T05:15:11;5.30;;;3.17;;
21206;SDS011;10761;48.532;8.026;2023-04-03T05:17:36;5.47;;;3.08;;
21206;SDS011;10761;48.532;8.026;2023-04-03T05:20:03;4.40;;;3.25;;
21206;SDS011;10761;48.532;8.026;2023-04-03T05:22:30;5.15;;;3.10;;
21206;SDS011;10761;48.532;8.026;2023-04-03T05:24:55;6.20;;;3.45;;
21206;SDS011;10761;48.532;8.026;2023-04-03T05:27:21;5.63;;;3.67;;
21206;SDS011;10761;48.532;8.026;2023-04-03T05:29:49;3.75;;;3.38;;
21206;SDS011;10761;48.532;8.026;2023-04-03T05:32:14;4.13;;;3.70;;
21206;SDS011;10761;48.532;8.026;2023-04-03T05:34:41;6.32;;;4.20;;
21206;SDS011;10761;48.532;8.026;2023-04-03T05:37:06;5.72;;;4.30;;
21206;SDS011;10761;48.532;8.026;2023-04-03T05:39:32;5.80;;;3.63;;
21206;SDS011;10761;48.532;8.026;2023-04-03T05:41:58;5.45;;;4.38;;
21206;SDS011;10761;48.532;8.026;2023-04-03T05:44:24;6.40;;;4.20;;
21206;SDS011;10761;48.532;8.026;2023-04-03T05:46:50;5.85;;;4.22;;
21206;SDS011;10761;48.532;8.026;2023-04-03T05:49:15;5.25;;;3.33;;
21206;SDS011;10761;48.532;8.026;2023-04-03T05:51:41;6.93;;;4.20;;
21206;SDS011;10761;48.532;8.026;2023-04-03T05:54:09;3.17;;;2.88;;
21206;SDS011;10761;48.532;8.026;2023-04-03T05:56:40;3.22;;;2.70;;
21206;SDS011;10761;48.532;8.026;2023-04-03T05:59:06;5.10;;;2.85;;
21206;SDS011;10761;48.532;8.026;2023-04-03T06:01:32;3.92;;;2.63;;
21206;SDS011;10761;48.532;8.026;2023-04-03T06:03:59;2.60;;;2.40;;
21206;SDS011;10761;48.532;8.026;2023-04-03T06:06:24;3.28;;;2.90;;
21206;SDS011;10761;48.532;8.026;2023-04-03T06:08:50;4.78;;;2.70;;
21206;SDS011;10761;48.532;8.026;2023-04-03T06:11:16;2.45;;;2.25;;
21206;SDS011;10761;48.532;8.026;2023-04-03T06:13:42;4.55;;;2.28;;
21206;SDS011;10761;48.532;8.026;2023-04-03T06:16:09;3.08;;;2.20;;
21206;SDS011;10761;48.532;8.026;2023-04-03T06:18:40;3.25;;;2.25;;
21206;SDS011;10761;48.532;8.026;2023-04-03T06:21:06;3.95;;;2.40;;
21206;SDS011;10761;48.532;8.026;2023-04-03T06:23:32;2.63;;;2.40;;
21206;SDS011;10761;48.532;8.026;2023-04-03T06:25:58;2.35;;;2.10;;
21206;SDS011;10761;48.532;8.026;2023-04-03T06:28:24;2.85;;;2.38;;
21206;SDS011;10761;48.532;8.026;2023-04-03T06:30:50;2.80;;;2.20;;
21206;SDS011;10761;48.532;8.026;2023-04-03T06:33:15;2.80;;;2.00;;
21206;SDS011;10761;48.532;8.026;2023-04-03T06:35:41;2.50;;;2.00;;
21206;SDS011;10761;48.532;8.026;2023-04-03T06:38:07;2.15;;;1.90;;
21206;SDS011;10761;48.532;8.026;2023-04-03T06:40:34;2.90;;;1.90;;
21206;SDS011;10761;48.532;8.026;2023-04-03T06:43:00;2.35;;;1.90;;
21206;SDS011;10761;48.532;8.026;2023-04-03T06:45:26;1.80;;;1.70;;
21206;SDS011;10761;48.532;8.026;2023-04-03T06:47:52;2.45;;;2.20;;
21206;SDS011;10761;48.532;8.026;2023-04-03T06:50:18;4.40;;;2.00;;
21206;SDS011;10761;48.532;8.026;2023-04-03T06:52:44;1.75;;;1.65;;
21206;SDS011;10761;48.532;8.026;2023-04-03T06:55:10;2.72;;;1.80;;
21206;SDS011;10761;48.532;8.026;2023-04-03T06:57:36;2.40;;;2.10;;
21206;SDS011;10761;48.532;8.026;2023-04-03T07:00:03;5.50;;;2.20;;
21206;SDS011;10761;48.532;8.026;2023-04-03T07:02:30;1.80;;;1.70;;
21206;SDS011;10761;48.532;8.026;2023-04-03T07:04:55;3.80;;;1.85;;
21206;SDS011;10761;48.532;8.026;2023-04-03T07:07:21;2.85;;;1.92;;
21206;SDS011;10761;48.532;8.026;2023-04-03T07:09:47;2.13;;;1.50;;
21206;SDS011;10761;48.532;8.026;2023-04-03T07:12:13;4.45;;;2.10;;
21206;SDS011;10761;48.532;8.026;2023-04-03T07:14:38;2.20;;;2.00;;
21206;SDS011;10761;48.532;8.026;2023-04-03T07:17:04;2.08;;;1.98;;
21206;SDS011;10761;48.532;8.026;2023-04-03T07:19:30;4.60;;;1.90;;
21206;SDS011;10761;48.532;8.026;2023-04-03T07:21:56;2.90;;;1.92;;
21206;SDS011;10761;48.532;8.026;2023-04-03T07:24:22;2.53;;;1.80;;
21206;SDS011;10761;48.532;8.026;2023-04-03T07:26:51;2.42;;;1.63;;
21206;SDS011;10761;48.532;8.026;2023-04-03T07:29:17;2.10;;;1.80;;
21206;SDS011;10761;48.532;8.026;2023-04-03T07:31:44;2.38;;;1.80;;
21206;SDS011;10761;48.532;8.026;2023-04-03T07:34:10;2.58;;;1.83;;
21206;SDS011;10761;48.532;8.026;2023-04-03T07:36:36;4.00;;;1.75;;
21206;SDS011;10761;48.532;8.026;2023-04-03T07:39:02;1.85;;;1.55;;
21206;SDS011;10761;48.532;8.026;2023-04-03T07:41:28;1.85;;;1.70;;
21206;SDS011;10761;48.532;8.026;2023-04-03T07:43:54;2.65;;;1.50;;
21206;SDS011;10761;48.532;8.026;2023-04-03T07:46:21;2.72;;;1.70;;
21206;SDS011;10761;48.532;8.026;2023-04-03T07:48:47;2.00;;;1.80;;
21206;SDS011;10761;48.532;8.026;2023-04-03T07:51:13;2.60;;;1.65;;
21206;SDS011;10761;48.532;8.026;2023-04-03T07:53:39;1.60;;;1.50;;
21206;SDS011;10761;48.532;8.026;2023-04-03T07:56:05;2.80;;;1.40;;
21206;SDS011;10761;48.532;8.026;2023-04-03T07:58:31;2.10;;;1.40;;
21206;SDS011;10761;48.532;8.026;2023-04-03T08:00:57;1.70;;;1.60;;
21206;SDS011;10761;48.532;8.026;2023-04-03T08:03:23;1.95;;;1.35;;
21206;SDS011;10761;48.532;8.026;2023-04-03T08:05:49;3.03;;;1.20;;
21206;SDS011;10761;48.532;8.026;2023-04-03T08:08:17;2.30;;;1.63;;
21206;SDS011;10761;48.532;8.026;2023-04-03T08:10:47;1.75;;;1.40;;
21206;SDS011;10761;48.532;8.026;2023-04-03T08:13:17;3.47;;;1.40;;
21206;SDS011;10761;48.532;8.026;2023-04-03T08:15:43;1.55;;;1.45;;
21206;SDS011;10761;48.532;8.026;2023-04-03T08:18:08;2.13;;;1.40;;
21206;SDS011;10761;48.532;8.026;2023-04-03T08:20:34;3.13;;;1.67;;
21206;SDS011;10761;48.532;8.026;2023-04-03T08:23:00;2.08;;;1.50;;
21206;SDS011;10761;48.532;8.026;2023-04-03T08:25:25;2.80;;;1.70;;
21206;SDS011;10761;48.532;8.026;2023-04-03T08:27:51;2.25;;;1.50;;
21206;SDS011;10761;48.532;8.026;2023-04-03T08:30:16;2.65;;;1.60;;
21206;SDS011;10761;48.532;8.026;2023-04-03T08:32:42;4.10;;;2.05;;
21206;SDS011;10761;48.532;8.026;2023-04-03T08:35:09;2.00;;;1.63;;
21206;SDS011;10761;48.532;8.026;2023-04-03T08:37:35;2.67;;;1.45;;
21206;SDS011;10761;48.532;8.026;2023-04-03T08:40:03;1.77;;;1.40;;
21206;SDS011;10761;48.532;8.026;2023-04-03T08:45:41;2.30;;;1.50;;
21206;SDS011;10761;48.532;8.026;2023-04-03T08:48:23;1.75;;;1.40;;
21206;SDS011;10761;48.532;8.026;2023-04-03T08:50:58;1.67;;;1.20;;
21206;SDS011;10761;48.532;8.026;2023-04-03T08:53:28;1.40;;;1.30;;
21206;SDS011;10761;48.532;8.026;2023-04-03T08:55:58;1.70;;;1.50;;
21206;SDS011;10761;48.532;8.026;2023-04-03T08:58:30;1.38;;;1.27;;
21206;SDS011;10761;48.532;8.026;2023-04-03T09:01:18;1.50;;;1.38;;
21206;SDS011;10761;48.532;8.026;2023-04-03T09:04:01;1.30;;;1.20;;
21206;SDS011;10761;48.532;8.026;2023-04-03T09:06:33;1.60;;;1.30;;
21206;SDS011;10761;48.532;8.026;2023-04-03T09:14:46;1.40;;;1.30;;
21206;SDS011;10761;48.532;8.026;2023-04-03T09:20:52;1.40;;;1.30;;
21206;SDS011;10761;48.532;8.026;2023-04-03T09:23:27;2.22;;;1.58;;
21206;SDS011;10761;48.532;8.026;2023-04-03T09:26:16;6.18;;;1.48;;
21206;SDS011;10761;48.532;8.026;2023-04-03T09:29:18;1.83;;;1.27;;
21206;SDS011;10761;48.532;8.026;2023-04-03T09:31:48;1.88;;;1.42;;
21206;SDS011;10761;48.532;8.026;2023-04-03T09:34:40;1.85;;;1.50;;
21206;SDS011;10761;48.532;8.026;2023-04-03T09:37:07;3.88;;;1.40;;
21206;SDS011;10761;48.532;8.026;2023-04-03T09:42:30;3.15;;;1.67;;
21206;SDS011;10761;48.532;8.026;2023-04-03T09:44:58;2.67;;;1.80;;
21206;SDS011;10761;48.532;8.026;2023-04-03T09:47:25;3.08;;;1.40;;
21206;SDS011;10761;48.532;8.026;2023-04-03T09:52:38;4.05;;;1.90;;
21206;SDS011;10761;48.532;8.026;2023-04-03T09:55:17;2.17;;;1.80;;
21206;SDS011;10761;48.532;8.026;2023-04-03T09:57:43;3.80;;;1.60;;
21206;SDS011;10761;48.532;8.026;2023-04-03T10:00:20;1.58;;;1.45;;
21206;SDS011;10761;48.532;8.026;2023-04-03T10:02:47;1.55;;;1.45;;
21206;SDS011;10761;48.532;8.026;2023-04-03T10:05:38;2.45;;;1.58;;
21206;SDS011;10761;48.532;8.026;2023-04-03T10:08:26;5.22;;;1.30;;
21206;SDS011;10761;48.532;8.026;2023-04-03T10:11:15;2.05;;;1.60;;
21206;SDS011;10761;48.532;8.026;2023-04-03T10:13:56;3.38;;;1.65;;
21206;SDS011;10761;48.532;8.026;2023-04-03T10:16:27;1.70;;;1.13;;
21206;SDS011;10761;48.532;8.026;2023-04-03T10:19:14;1.80;;;1.40;;
21206;SDS011;10761;48.532;8.026;2023-04-03T10:28:12;3.38;;;1.60;;
21206;SDS011;10761;48.532;8.026;2023-04-03T10:30:50;2.17;;;1.50;;
21206;SDS011;10761;48.532;8.026;2023-04-03T10:38:51;1.67;;;1.30;;
21206;SDS011;10761;48.532;8.026;2023-04-03T10:41:46;2.05;;;1.30;;
21206;SDS011;10761;48.532;8.026;2023-04-03T10:47:07;3.10;;;1.83;;
21206;SDS011;10761;48.532;8.026;2023-04-03T10:49:42;2.88;;;1.67;;
21206;SDS011;10761;48.532;8.026;2023-04-03T10:52:32;2.05;;;1.55;;
21206;SDS011;10761;48.532;8.026;2023-04-03T10:58:45;4.63;;;1.98;;
21206;SDS011;10761;48.532;8.026;2023-04-03T11:01:18;2.95;;;1.83;;
21206;SDS011;10761;48.532;8.026;2023-04-03T11:03:49;3.50;;;1.50;;
21206;SDS011;10761;48.532;8.026;2023-04-03T11:06:18;4.55;;;1.90;;
21206;SDS011;10761;48.532;8.026;2023-04-03T11:08:50;4.13;;;2.10;;
21206;SDS011;10761;48.532;8.026;2023-04-03T11:11:25;4.32;;;1.85;;
21206;SDS011;10761;48.532;8.026;2023-04-03T11:13:56;2.85;;;1.90;;
21206;SDS011;10761;48.532;8.026;2023-04-03T11:16:28;3.17;;;2.05;;
21206;SDS011;10761;48.532;8.026;2023-04-03T11:22:04;3.10;;;1.80;;
21206;SDS011;10761;48.532;8.026;2023-04-03T11:24:27;7.15;;;1.55;;
21206;SDS011;10761;48.532;8.026;2023-04-03T11:26:56;2.95;;;1.58;;
21206;SDS011;10761;48.532;8.026;2023-04-03T11:29:25;5.03;;;1.85;;
21206;SDS011;10761;48.532;8.026;2023-04-03T11:34:37;5.00;;;2.20;;
21206;SDS011;10761;48.532;8.026;2023-04-03T11:39:48;2.33;;;1.80;;
21206;SDS011;10761;48.532;8.026;2023-04-03T11:42:39;4.35;;;2.05;;
21206;SDS011;10761;48.532;8.026;2023-04-03T11:47:50;3.30;;;1.73;;
21206;SDS011;10761;48.532;8.026;2023-04-03T11:58:14;4.53;;;1.80;;
21206;SDS011;10761;48.532;8.026;2023-04-03T12:13:38;2.03;;;1.60;;
21206;SDS011;10761;48.532;8.026;2023-04-03T12:16:27;3.60;;;1.80;;
21206;SDS011;10761;48.532;8.026;2023-04-03T12:19:01;3.33;;;1.70;;
21206;SDS011;10761;48.532;8.026;2023-04-03T12:37:43;2.60;;;1.70;;
21206;SDS011;10761;48.532;8.026;2023-04-03T12:40:41;1.98;;;1.65;;
21206;SDS011;10761;48.532;8.026;2023-04-03T12:48:26;2.40;;;1.42;;
21206;SDS011;10761;48.532;8.026;2023-04-03T12:50:53;1.75;;;1.20;;
21206;SDS011;10761;48.532;8.026;2023-04-03T12:53:27;2.38;;;1.30;;
21206;SDS011;10761;48.532;8.026;2023-04-03T12:58:45;2.05;;;1.35;;
21206;SDS011;10761;48.532;8.026;2023-04-03T13:01:16;3.58;;;1.48;;
21206;SDS011;10761;48.532;8.026;2023-04-03T13:03:45;4.75;;;2.05;;
21206;SDS011;10761;48.532;8.026;2023-04-03T13:06:14;3.85;;;1.40;;
21206;SDS011;10761;48.532;8.026;2023-04-03T13:08:49;2.72;;;1.60;;
21206;SDS011;10761;48.532;8.026;2023-04-03T13:11:19;2.13;;;1.40;;
21206;SDS011;10761;48.532;8.026;2023-04-03T13:13:57;4.03;;;1.25;;
21206;SDS011;10761;48.532;8.026;2023-04-03T13:16:24;2.85;;;1.55;;
21206;SDS011;10761;48.532;8.026;2023-04-03T13:18:50;4.93;;;1.40;;
21206;SDS011;10761;48.532;8.026;2023-04-03T13:21:18;2.20;;;1.30;;
21206;SDS011;10761;48.532;8.026;2023-04-03T13:23:50;1.80;;;1.20;;
21206;SDS011;10761;48.532;8.026;2023-04-03T13:26:19;2.25;;;1.50;;
21206;SDS011;10761;48.532;8.026;2023-04-03T13:28:47;2.72;;;1.75;;
21206;SDS011;10761;48.532;8.026;2023-04-03T13:36:36;2.67;;;1.50;;
21206;SDS011;10761;48.532;8.026;2023-04-03T13:41:39;3.70;;;1.50;;
21206;SDS011;10761;48.532;8.026;2023-04-03T13:44:25;1.50;;;1.20;;
21206;SDS011;10761;48.532;8.026;2023-04-03T13:46:55;2.75;;;1.35;;
21206;SDS011;10761;48.532;8.026;2023-04-03T13:49:40;3.17;;;1.58;;
21206;SDS011;10761;48.532;8.026;2023-04-03T13:52:34;2.67;;;1.35;;
21206;SDS011;10761;48.532;8.026;2023-04-03T13:58:23;2.80;;;1.40;;
21206;SDS011;10761;48.532;8.026;2023-04-03T14:00:56;2.35;;;1.48;;
21206;SDS011;10761;48.532;8.026;2023-04-03T14:06:11;2.30;;;1.02;;
21206;SDS011;10761;48.532;8.026;2023-04-03T14:08:38;2.25;;;1.40;;
21206;SDS011;10761;48.532;8.026;2023-04-03T14:11:04;3.08;;;1.30;;
21206;SDS011;10761;48.532;8.026;2023-04-03T14:13:30;4.13;;;1.40;;
21206;SDS011;10761;48.532;8.026;2023-04-03T14:15:56;2.63;;;1.38;;
21206;SDS011;10761;48.532;8.026;2023-04-03T14:18:22;2.78;;;1.25;;
21206;SDS011;10761;48.532;8.026;2023-04-03T14:20:48;1.88;;;1.25;;
21206;SDS011;10761;48.532;8.026;2023-04-03T14:23:14;3.40;;;1.42;;
21206;SDS011;10761;48.532;8.026;2023-04-03T14:25:40;2.38;;;1.30;;
21206;SDS011;10761;48.532;8.026;2023-04-03T14:28:16;3.97;;;1.40;;
21206;SDS011;10761;48.532;8.026;2023-04-03T14:30:44;3.22;;;1.48;;
21206;SDS011;10761;48.532;8.026;2023-04-03T14:33:13;4.63;;;1.40;;
21206;SDS011;10761;48.532;8.026;2023-04-03T14:35:41;2.92;;;1.50;;
21206;SDS011;10761;48.532;8.026;2023-04-03T14:38:40;3.50;;;1.40;;
21206;SDS011;10761;48.532;8.026;2023-04-03T14:40:58;1.67;;;1.27;;
21206;SDS011;10761;48.532;8.026;2023-04-03T14:43:24;3.33;;;1.30;;
21206;SDS011;10761;48.532;8.026;2023-04-03T14:45:51;4.47;;;1.50;;
21206;SDS011;10761;48.532;8.026;2023-04-03T14:48:20;2.45;;;1.40;;
21206;SDS011;10761;48.532;8.026;2023-04-03T14:50:56;2.22;;;1.30;;
21206;SDS011;10761;48.532;8.026;2023-04-03T14:53:21;3.05;;;1.58;;
21206;SDS011;10761;48.532;8.026;2023-04-03T14:55:49;6.22;;;2.17;;
21206;SDS011;10761;48.532;8.026;2023-04-03T14:58:16;3.78;;;1.40;;
21206;SDS011;10761;48.532;8.026;2023-04-03T15:00:43;3.15;;;1.40;;
21206;SDS011;10761;48.532;8.026;2023-04-03T15:03:12;2.08;;;1.30;;
21206;SDS011;10761;48.532;8.026;2023-04-03T15:05:40;2.65;;;1.30;;
21206;SDS011;10761;48.532;8.026;2023-04-03T15:08:08;4.55;;;1.50;;
21206;SDS011;10761;48.532;8.026;2023-04-03T15:10:44;3.78;;;1.30;;
21206;SDS011;10761;48.532;8.026;2023-04-03T15:13:10;2.88;;;1.35;;
21206;SDS011;10761;48.532;8.026;2023-04-03T15:15:37;3.17;;;1.35;;
21206;SDS011;10761;48.532;8.026;2023-04-03T15:18:03;3.78;;;1.40;;
21206;SDS011;10761;48.532;8.026;2023-04-03T15:20:29;4.43;;;1.52;;
21206;SDS011;10761;48.532;8.026;2023-04-03T15:22:58;2.67;;;1.05;;
21206;SDS011;10761;48.532;8.026;2023-04-03T15:25:27;3.05;;;1.40;;
21206;SDS011;10761;48.532;8.026;2023-04-03T15:27:54;1.95;;;1.23;;
21206;SDS011;10761;48.532;8.026;2023-04-03T15:30:21;3.10;;;1.35;;
21206;SDS011;10761;48.532;8.026;2023-04-03T15:32:46;2.65;;;1.40;;
21206;SDS011;10761;48.532;8.026;2023-04-03T15:35:13;2.58;;;1.63;;
21206;SDS011;10761;48.532;8.026;2023-04-03T15:37:38;3.28;;;1.40;;
21206;SDS011;10761;48.532;8.026;2023-04-03T15:40:04;2.92;;;1.48;;
21206;SDS011;10761;48.532;8.026;2023-04-03T15:42:32;3.67;;;2.20;;
21206;SDS011;10761;48.532;8.026;2023-04-03T15:44:57;2.60;;;1.20;;
21206;SDS011;10761;48.532;8.026;2023-04-03T15:47:24;6.05;;;3.70;;
21206;SDS011;10761;48.532;8.026;2023-04-03T15:49:51;3.22;;;1.90;;
21206;SDS011;10761;48.532;8.026;2023-04-03T15:52:17;5.47;;;1.58;;
21206;SDS011;10761;48.532;8.026;2023-04-03T15:54:43;2.63;;;1.45;;
21206;SDS011;10761;48.532;8.026;2023-04-03T15:57:08;2.35;;;1.40;;
21206;SDS011;10761;48.532;8.026;2023-04-03T15:59:34;4.95;;;2.03;;
21206;SDS011;10761;48.532;8.026;2023-04-03T16:01:59;2.47;;;1.13;;
21206;SDS011;10761;48.532;8.026;2023-04-03T16:04:28;2.65;;;1.30;;
21206;SDS011;10761;48.532;8.026;2023-04-03T16:06:55;3.70;;;1.80;;
21206;SDS011;10761;48.532;8.026;2023-04-03T16:09:21;3.33;;;2.00;;
21206;SDS011;10761;48.532;8.026;2023-04-03T16:11:46;4.35;;;2.35;;
21206;SDS011;10761;48.532;8.026;2023-04-03T16:14:12;6.80;;;5.03;;
21206;SDS011;10761;48.532;8.026;2023-04-03T16:16:38;13.65;;;9.57;;
21206;SDS011;10761;48.532;8.026;2023-04-03T16:19:04;5.60;;;3.17;;
21206;SDS011;10761;48.532;8.026;2023-04-03T16:21:31;4.53;;;1.50;;
21206;SDS011;10761;48.532;8.026;2023-04-03T16:23:58;3.22;;;1.42;;
21206;SDS011;10761;48.532;8.026;2023-04-03T16:26:24;2.40;;;1.60;;
21206;SDS011;10761;48.532;8.026;2023-04-03T16:28:50;1.40;;;1.20;;
21206;SDS011;10761;48.532;8.026;2023-04-03T16:31:16;2.75;;;1.30;;
21206;SDS011;10761;48.532;8.026;2023-04-03T16:33:42;3.03;;;1.50;;
21206;SDS011;10761;48.532;8.026;2023-04-03T16:36:07;2.60;;;1.27;;
21206;SDS011;10761;48.532;8.026;2023-04-03T16:38:33;1.95;;;1.80;;
21206;SDS011;10761;48.532;8.026;2023-04-03T16:40:58;2.80;;;1.60;;
21206;SDS011;10761;48.532;8.026;2023-04-03T16:43:29;2.95;;;1.48;;
21206;SDS011;10761;48.532;8.026;2023-04-03T16:45:55;4.20;;;1.80;;
21206;SDS011;10761;48.532;8.026;2023-04-03T16:48:20;2.97;;;1.45;;
21206;SDS011;10761;48.532;8.026;2023-04-03T16:50:47;1.80;;;1.50;;